Time;durP1;ratioP1;P1;durP2;ratioP2;P2;SDS_P1;SDS_P2;PMS_P1;PMS_P2;Temp;Humidity;BMP_temperature;BMP_pressure;BME280_temperature;BME280_humidity;BME280_pressure;Samples;Min_cycle;Max_cycle;Signal;HPM_P1;HPM_P2
2021/09/12 00:02:10;;;;;;;;;15.00;14.50;;;;;22.43;56.83;100802.09;146603;639;46017;-70
2021/09/12 00:04:44;;;;;;;;;16.75;15.00;;;;;22.40;56.93;100796.81;146604;606;46020;-71
2021/09/12 00:07:18;;;;;;;;;14.50;13.00;;;;;22.41;56.76;100789.75;146604;695;46012;-71
2021/09/12 00:09:51;;;;;;;;;14.75;14.00;;;;;22.40;56.85;100799.44;146604;580;47012;-71
2021/09/12 00:12:25;;;;;;;;;17.50;16.25;;;;;22.37;57.41;100792.38;146604;608;46016;-71
2021/09/12 00:14:59;;;;;;;;;21.75;17.75;;;;;22.32;56.97;100794.09;146607;581;46020;-72
2021/09/12 00:17:33;;;;;;;;;18.25;15.25;;;;;22.28;57.10;100786.19;146604;663;47012;-72
2021/09/12 00:20:09;;;;;;;;;18.00;15.25;;;;;22.25;56.86;100786.16;146609;582;46020;-74
2021/09/12 00:22:43;;;;;;;;;17.25;16.75;;;;;22.24;56.85;100784.38;146604;667;46016;-74
2021/09/12 00:25:18;;;;;;;;;15.25;14.75;;;;;21.72;57.19;100695.22;146604;663;47008;-73
2021/09/12 00:27:51;;;;;;;;;17.50;14.50;;;;;22.25;57.41;100789.69;146605;565;46016;-73
2021/09/12 00:30:25;;;;;;;;;14.50;13.75;;;;;22.26;57.07;100799.37;146608;648;46021;-71
2021/09/12 00:32:59;;;;;;;;;17.25;15.00;;;;;22.22;57.17;100800.22;146604;573;46017;-70
2021/09/12 00:35:33;;;;;;;;;13.25;13.25;;;;;22.19;57.08;100789.66;146606;678;46012;-68
2021/09/12 00:38:07;;;;;;;;;16.00;15.00;;;;;22.17;57.23;100785.22;146605;641;46916;-70
2021/09/12 00:40:41;;;;;;;;;13.00;13.00;;;;;22.16;56.94;100781.72;146609;619;46020;-70
2021/09/12 00:43:16;;;;;;;;;16.50;15.75;;;;;22.17;57.46;100782.59;146605;597;46016;-72
2021/09/12 00:45:56;;;;;;;;;13.25;12.25;;;;;22.17;57.13;100788.75;146608;592;46020;-71
2021/09/12 00:48:30;;;;;;;;;18.25;15.50;;;;;22.19;57.45;100787.00;146605;569;47012;-71
2021/09/12 00:51:03;;;;;;;;;14.50;14.25;;;;;22.18;57.42;100787.00;146608;582;46020;-73
2021/09/12 00:53:41;;;;;;;;;13.25;13.25;;;;;22.13;57.65;100789.59;146603;591;47012;-71
2021/09/12 00:56:17;;;;;;;;;15.25;14.25;;;;;22.08;57.60;100781.62;146606;638;45020;-72
2021/09/12 00:58:54;;;;;;;;;15.25;14.25;;;;;22.07;57.79;100782.50;146604;590;46012;-72
2021/09/12 01:01:28;;;;;;;;;17.75;15.00;;;;;22.08;58.29;100783.38;146607;683;46020;-73
2021/09/12 01:04:03;;;;;;;;;15.25;14.00;;;;;22.05;58.34;100784.25;146602;669;46016;-73
2021/09/12 01:06:37;;;;;;;;;15.00;13.75;;;;;22.01;58.94;100778.97;146606;649;46020;-71
2021/09/12 01:09:11;;;;;;;;;15.75;15.00;;;;;21.96;58.73;100778.03;146602;585;47012;-72
2021/09/12 01:11:45;;;;;;;;;13.00;13.00;;;;;21.91;58.62;100773.63;146605;585;46908;-71
2021/09/12 01:14:19;;;;;;;;;16.50;15.75;;;;;21.91;58.53;100770.13;146605;617;46016;-72
2021/09/12 01:16:53;;;;;;;;;13.00;13.00;;;;;21.92;59.01;100775.38;146607;678;46021;-72
2021/09/12 01:19:27;;;;;;;;;15.00;13.25;;;;;21.91;59.14;100768.34;146603;610;46016;-71
2021/09/12 01:22:07;;;;;;;;;14.50;14.50;;;;;21.86;59.06;100775.34;146605;598;46908;-71
2021/09/12 01:24:41;;;;;;;;;13.75;13.75;;;;;21.86;59.26;100769.19;146605;633;46016;-72
2021/09/12 01:27:15;;;;;;;;;14.25;13.75;;;;;21.86;59.33;100766.56;146605;650;46010;-72
2021/09/12 01:29:49;;;;;;;;;16.25;14.75;;;;;21.88;59.33;100778.00;146603;641;46016;-72
2021/09/12 01:32:27;;;;;;;;;14.25;14.00;;;;;21.88;59.61;100778.00;146608;646;46010;-71
2021/09/12 01:35:00;;;;;;;;;14.00;14.00;;;;;21.89;59.31;100783.28;146604;595;46016;-72
2021/09/12 01:37:43;;;;;;;;;15.00;14.00;;;;;21.89;59.48;100777.13;146606;566;46020;-71
2021/09/12 01:40:18;;;;;;;;;16.75;15.75;;;;;21.91;59.50;100776.28;146605;657;46036;-72
2021/09/12 01:43:28;;;;;;;;;15.00;15.00;;;;;21.91;59.21;100778.03;146604;594;46908;-70
2021/09/12 01:46:05;;;;;;;;;16.75;14.00;;;;;21.89;59.77;100787.69;146605;649;46032;-70
2021/09/12 01:48:40;;;;;;;;;17.25;15.50;;;;;21.83;60.04;100782.37;146603;636;46020;-70
2021/09/12 01:54:46;;;;;;;;;15.75;15.75;;;;;21.78;59.81;100776.19;146607;649;46010;-71
2021/09/12 01:57:20;;;;;;;;;16.50;16.50;;;;;21.72;60.13;100773.53;146606;664;46012;-70
2021/09/12 01:59:54;;;;;;;;;17.25;15.50;;;;;21.66;60.62;100771.72;146608;621;45022;-70
2021/09/12 02:02:31;;;;;;;;;19.50;15.50;;;;;21.65;59.81;100775.22;146604;591;46016;-70
2021/09/12 02:05:06;;;;;;;;;17.50;16.00;;;;;21.64;60.55;100774.34;146607;635;46020;-73
2021/09/12 02:07:40;;;;;;;;;16.75;14.00;;;;;21.64;60.35;100773.44;146603;630;46016;-74
2021/09/12 02:10:14;;;;;;;;;14.50;13.00;;;;;21.64;60.13;100774.34;146606;683;46020;-74
2021/09/12 02:12:48;;;;;;;;;16.00;15.50;;;;;21.64;60.65;100769.06;146604;625;47012;-74
2021/09/12 02:15:22;;;;;;;;;18.25;14.25;;;;;21.64;60.07;100776.09;146604;564;46021;-73
2021/09/12 02:17:56;;;;;;;;;17.50;15.75;;;;;21.66;60.53;100777.88;146606;563;46012;-71
2021/09/12 02:20:31;;;;;;;;;17.50;14.50;;;;;21.67;60.73;100771.72;146605;598;47010;-71
2021/09/12 02:23:05;;;;;;;;;15.00;14.00;;;;;21.68;61.41;100775.22;146603;609;46017;-71
2021/09/12 02:25:39;;;;;;;;;17.00;17.00;;;;;21.62;60.81;100781.38;146606;637;46020;-70
2021/09/12 02:28:13;;;;;;;;;16.25;16.25;;;;;21.59;60.76;100781.34;146606;582;46020;-71
2021/09/12 02:30:47;;;;;;;;;17.75;13.00;;;;;21.61;60.40;100774.31;146606;602;46025;-71
2021/09/12 02:33:21;;;;;;;;;17.75;17.75;;;;;21.65;61.06;100772.56;146605;591;46016;-72
2021/09/12 02:35:54;;;;;;;;;15.25;15.25;;;;;21.64;60.73;100774.34;146609;587;45048;-74
2021/09/12 02:39:10;;;;;;;;;16.00;14.00;;;;;21.65;60.29;100775.22;146606;721;46016;-72
2021/09/12 02:41:44;;;;;;;;;19.25;17.25;;;;;21.64;60.57;100770.81;146607;593;46010;-73
2021/09/12 02:44:21;;;;;;;;;19.00;17.00;;;;;20.58;60.79;100588.06;146604;633;46017;-72
2021/09/12 02:46:54;;;;;;;;;19.50;17.00;;;;;21.70;60.24;100767.34;146606;574;46020;-71
2021/09/12 02:49:28;;;;;;;;;16.75;15.50;;;;;21.74;60.33;100769.13;146604;670;46016;-70
2021/09/12 02:52:02;;;;;;;;;19.75;16.50;;;;;21.73;60.53;100764.72;146606;594;46021;-69
2021/09/12 02:54:36;;;;;;;;;19.50;18.00;;;;;21.72;60.40;100766.47;146604;573;47020;-71
2021/09/12 02:57:10;;;;;;;;;21.75;18.25;;;;;21.66;60.37;100758.53;146607;656;46020;-70
2021/09/12 02:59:44;;;;;;;;;17.50;16.25;;;;;21.62;61.34;100760.25;146604;611;46018;-70
2021/09/12 03:02:18;;;;;;;;;17.25;16.00;;;;;21.55;61.39;100755.81;146605;712;46030;-70
2021/09/12 03:04:52;;;;;;;;;18.75;15.50;;;;;21.50;61.35;100748.75;146605;666;46016;-70
2021/09/12 03:07:26;;;;;;;;;21.00;20.00;;;;;21.46;61.22;100747.81;146604;569;46914;-70
2021/09/12 03:10:00;;;;;;;;;14.75;14.75;;;;;21.42;60.82;100748.69;146604;688;47018;-70
2021/09/12 03:12:34;;;;;;;;;17.00;17.00;;;;;21.42;61.13;100748.69;146608;628;46029;-70
2021/09/12 03:15:09;;;;;;;;;17.75;15.75;;;;;21.42;61.01;100733.72;146603;569;46911;-70
2021/09/12 03:17:43;;;;;;;;;13.75;12.50;;;;;21.45;60.82;100736.38;146606;569;46020;-70
2021/09/12 03:20:18;;;;;;;;;16.00;14.50;;;;;21.46;61.67;100745.19;146603;585;46016;-71
2021/09/12 03:22:51;;;;;;;;;21.25;18.00;;;;;21.41;61.42;100747.81;146605;567;46021;-70
2021/09/12 03:25:25;;;;;;;;;15.50;14.75;;;;;21.38;61.07;100736.34;146604;622;46016;-72
2021/09/12 03:27:59;;;;;;;;;15.00;13.25;;;;;21.32;60.23;100733.62;146607;575;45022;-70
2021/09/12 03:30:33;;;;;;;;;18.75;15.75;;;;;20.72;60.02;100648.81;146605;572;46025;-71
2021/09/12 03:33:07;;;;;;;;;14.75;13.75;;;;;21.31;60.42;100752.94;146604;690;47010;-72
2021/09/12 03:35:41;;;;;;;;;16.50;15.00;;;;;20.73;60.39;100651.44;146602;627;46016;-72
2021/09/12 03:38:15;;;;;;;;;13.75;12.25;;;;;21.37;60.03;100746.03;146606;570;46020;-72
2021/09/12 03:40:49;;;;;;;;;17.25;14.50;;;;;21.42;60.17;100746.91;146605;616;46016;-70
2021/09/12 03:43:24;;;;;;;;;15.75;12.25;;;;;21.48;59.76;100754.00;146608;665;46014;-71
2021/09/12 03:45:58;;;;;;;;;16.75;15.75;;;;;21.51;59.66;100754.03;146605;591;46021;-69
2021/09/12 03:48:32;;;;;;;;;15.00;14.50;;;;;21.52;59.62;100750.50;146608;571;46020;-69
2021/09/12 03:51:06;;;;;;;;;14.00;13.75;;;;;21.53;59.41;100756.69;146603;602;46016;-69
2021/09/12 03:53:40;;;;;;;;;17.75;14.75;;;;;21.51;59.68;100755.78;146605;644;46020;-69
2021/09/12 03:56:14;;;;;;;;;13.25;12.75;;;;;21.50;59.32;100752.28;146604;584;46016;-70
2021/09/12 03:58:47;;;;;;;;;16.50;15.75;;;;;21.51;59.52;100759.31;146604;653;46021;-69
2021/09/12 04:01:21;;;;;;;;;18.00;15.50;;;;;21.53;59.75;100756.69;146603;604;46016;-69
2021/09/12 04:03:55;;;;;;;;;13.00;13.00;;;;;21.53;59.80;100761.97;146609;633;45020;-69
2021/09/12 04:06:29;;;;;;;;;17.00;15.25;;;;;21.51;60.29;100761.94;146606;583;46910;-69
2021/09/12 04:09:03;;;;;;;;;19.25;17.00;;;;;21.48;60.65;100763.69;146607;740;46014;-69
2021/09/12 04:11:37;;;;;;;;;15.75;15.50;;;;;21.42;60.63;100772.41;146605;735;46012;-69
2021/09/12 04:14:11;;;;;;;;;17.00;15.50;;;;;21.37;60.68;100764.50;146607;626;46021;-69
2021/09/12 04:16:45;;;;;;;;;15.25;13.75;;;;;21.35;60.76;100766.22;146603;581;47012;-69
2021/09/12 04:19:19;;;;;;;;;20.00;18.00;;;;;21.32;61.21;100774.06;146607;609;46020;-70
2021/09/12 04:21:53;;;;;;;;;17.25;16.75;;;;;21.27;61.14;100770.50;146604;582;47012;-70
2021/09/12 04:24:27;;;;;;;;;22.00;19.00;;;;;21.26;61.06;100776.66;146603;601;46020;-70
2021/09/12 04:27:01;;;;;;;;;18.50;17.25;;;;;21.25;61.59;100774.91;146606;584;46012;-70
2021/09/12 04:29:35;;;;;;;;;18.00;15.75;;;;;21.25;61.25;100774.91;146608;576;46013;-70
2021/09/12 04:32:10;;;;;;;;;15.75;15.75;;;;;21.26;61.53;100781.06;146605;599;46016;-70
2021/09/12 04:34:47;;;;;;;;;19.50;15.75;;;;;21.27;61.12;100774.91;146608;598;46020;-71
2021/09/12 04:37:21;;;;;;;;;15.50;14.75;;;;;21.30;61.01;100780.19;146606;644;46016;-70
2021/09/12 04:39:54;;;;;;;;;18.00;17.00;;;;;21.32;61.05;100773.19;146605;638;46020;-70
2021/09/12 04:42:28;;;;;;;;;18.25;17.50;;;;;21.36;61.23;100780.28;146604;573;46017;-70
2021/09/12 04:45:04;;;;;;;;;17.50;15.50;;;;;21.37;61.33;100782.94;146607;606;46915;-70
2021/09/12 04:47:38;;;;;;;;;15.25;15.00;;;;;21.38;61.13;100779.44;146606;645;46012;-69
2021/09/12 04:50:13;;;;;;;;;14.00;14.00;;;;;21.36;60.66;100783.81;146605;572;46012;-69
2021/09/12 04:52:47;;;;;;;;;17.75;15.00;;;;;21.34;61.14;100774.06;146607;593;46012;-69
2021/09/12 04:55:21;;;;;;;;;15.00;14.25;;;;;21.30;60.98;100774.94;146609;565;45029;-70
2021/09/12 04:57:55;;;;;;;;;18.75;16.25;;;;;21.28;60.92;100769.66;146606;627;47013;-69
2021/09/12 05:00:29;;;;;;;;;14.25;13.75;;;;;21.32;60.67;100768.78;146608;570;46010;-70
2021/09/12 05:03:03;;;;;;;;;17.50;17.00;;;;;21.34;60.80;100776.69;146603;596;46016;-70
2021/09/12 05:05:37;;;;;;;;;18.00;16.25;;;;;21.37;60.73;100771.50;146606;579;47012;-70
2021/09/12 05:08:11;;;;;;;;;16.75;16.50;;;;;21.43;60.74;100779.44;146607;588;45020;-70
2021/09/12 05:10:45;;;;;;;;;18.25;16.75;;;;;21.50;60.54;100783.06;146608;605;46012;-70
2021/09/12 05:13:19;;;;;;;;;18.00;14.75;;;;;21.54;60.28;100783.06;146605;571;46017;-70
2021/09/12 05:15:53;;;;;;;;;19.25;18.25;;;;;21.62;59.97;100784.00;146604;611;46014;-69
2021/09/12 05:18:27;;;;;;;;;17.25;17.25;;;;;21.67;60.31;100787.56;146604;563;46014;-69
2021/09/12 05:21:01;;;;;;;;;15.75;14.00;;;;;21.73;59.78;100783.19;146609;622;45021;-72
2021/09/12 05:23:35;;;;;;;;;15.50;15.50;;;;;21.76;59.68;100792.00;146605;613;46012;-72
2021/09/12 05:26:09;;;;;;;;;18.00;16.00;;;;;21.81;59.99;100789.41;146606;628;46020;-72
2021/09/12 05:28:43;;;;;;;;;19.25;16.50;;;;;21.85;59.62;100785.91;146604;579;46016;-72
2021/09/12 05:31:17;;;;;;;;;18.50;18.00;;;;;21.89;59.46;100792.97;146608;612;46020;-72
2021/09/12 05:33:51;;;;;;;;;17.25;14.50;;;;;21.95;59.90;100797.41;146605;571;46016;-72
2021/09/12 05:36:24;;;;;;;;;20.00;17.75;;;;;21.98;59.71;100803.59;146609;677;46020;-70
2021/09/12 05:38:58;;;;;;;;;16.25;16.25;;;;;22.00;60.08;100801.84;146603;582;46018;-71
2021/09/12 05:41:32;;;;;;;;;18.50;14.50;;;;;21.22;59.62;100662.38;146606;681;45021;-71
2021/09/12 05:44:07;;;;;;;;;19.75;16.50;;;;;22.02;59.29;100800.06;146603;603;46017;-71
2021/09/12 05:46:41;;;;;;;;;16.25;14.50;;;;;22.06;59.57;100799.25;146605;646;46020;-70
2021/09/12 05:49:15;;;;;;;;;19.25;18.25;;;;;22.10;59.61;100798.38;146604;598;46033;-70
2021/09/12 05:51:50;;;;;;;;;18.75;18.50;;;;;22.13;59.73;100802.78;146605;583;46020;-71
2021/09/12 05:54:23;;;;;;;;;21.00;19.75;;;;;22.12;59.97;100807.19;146605;571;46016;-70
2021/09/12 05:56:57;;;;;;;;;15.75;15.25;;;;;22.16;59.71;100804.56;146605;625;46022;-70
2021/09/12 05:59:31;;;;;;;;;18.75;15.75;;;;;22.22;59.37;100800.22;146603;603;47012;-71
2021/09/12 06:02:06;;;;;;;;;18.75;18.00;;;;;22.29;59.49;100793.22;146607;573;46010;-72
2021/09/12 06:04:39;;;;;;;;;19.75;16.00;;;;;22.36;59.12;100793.22;146603;605;47013;-72
2021/09/12 06:07:13;;;;;;;;;21.00;18.50;;;;;22.47;58.97;100802.97;146607;586;46010;-71
2021/09/12 06:09:47;;;;;;;;;21.75;15.75;;;;;22.54;58.59;100796.84;146605;584;46012;-71
2021/09/12 06:12:21;;;;;;;;;18.75;17.25;;;;;22.62;58.36;100794.19;146606;627;46021;-71
2021/09/12 06:14:55;;;;;;;;;20.50;18.50;;;;;22.70;59.07;100796.00;146604;576;47910;-71
2021/09/12 06:17:29;;;;;;;;;18.75;17.75;;;;;22.78;58.04;100794.25;146607;598;46020;-71
2021/09/12 06:20:03;;;;;;;;;18.25;17.25;;;;;22.86;58.14;100802.19;146603;569;46029;-72
2021/09/12 06:22:37;;;;;;;;;18.75;16.25;;;;;22.95;57.57;100794.31;146608;582;46020;-71
2021/09/12 06:25:11;;;;;;;;;16.50;15.00;;;;;22.44;56.90;100684.94;146603;565;46016;-72
2021/09/12 06:27:45;;;;;;;;;16.75;16.75;;;;;23.12;57.09;100786.44;146608;641;46021;-71
2021/09/12 06:30:20;;;;;;;;;19.00;18.00;;;;;23.20;57.11;100787.28;146602;620;46012;-71
2021/09/12 06:32:54;;;;;;;;;19.00;16.25;;;;;23.29;56.62;100795.22;146606;601;46029;-72
2021/09/12 06:35:32;;;;;;;;;16.25;15.25;;;;;23.38;56.69;100788.19;146604;569;47021;-70
2021/09/12 06:38:05;;;;;;;;;16.75;15.50;;;;;23.46;56.28;100794.38;146603;631;47010;-70
2021/09/12 06:40:39;;;;;;;;;20.00;19.00;;;;;23.55;56.14;100804.03;146606;603;46012;-70
2021/09/12 06:43:13;;;;;;;;;14.50;14.50;;;;;23.63;56.04;100797.00;146605;569;46915;-70
2021/09/12 06:45:48;;;;;;;;;16.25;15.75;;;;;23.68;55.85;100796.13;146603;578;46016;-70
2021/09/12 06:48:22;;;;;;;;;18.25;15.50;;;;;23.77;55.63;100794.34;146607;670;46026;-70
2021/09/12 06:50:57;;;;;;;;;18.50;16.50;;;;;23.84;54.59;100802.28;146603;603;46016;-70
2021/09/12 06:53:31;;;;;;;;;14.50;13.25;;;;;23.90;54.27;100796.97;146608;575;45022;-70
2021/09/12 06:56:05;;;;;;;;;16.25;16.25;;;;;23.96;54.47;100796.97;146605;578;45910;-70
2021/09/12 06:58:39;;;;;;;;;20.75;18.75;;;;;24.08;54.28;100797.81;146606;575;46020;-70
2021/09/12 07:01:13;;;;;;;;;22.00;18.50;;;;;24.27;53.40;100807.47;146603;569;46016;-70
2021/09/12 07:03:47;;;;;;;;;18.00;17.00;;;;;24.45;53.57;100806.53;146608;583;46010;-70
2021/09/12 07:06:21;;;;;;;;;17.25;15.75;;;;;24.62;52.99;100806.47;146603;569;47012;-71
2021/09/12 07:08:55;;;;;;;;;19.25;17.75;;;;;24.77;53.04;100806.37;146606;594;46020;-71
2021/09/12 07:11:29;;;;;;;;;19.00;18.25;;;;;24.87;52.05;100805.44;146603;613;46016;-75
2021/09/12 07:14:03;;;;;;;;;17.75;16.25;;;;;24.56;52.50;100721.66;146607;565;46020;-71
2021/09/12 07:16:37;;;;;;;;;18.50;18.00;;;;;25.32;51.72;100791.88;146603;563;46016;-72
2021/09/12 07:19:11;;;;;;;;;21.25;18.50;;;;;25.67;50.69;100799.53;146607;651;46026;-71
2021/09/12 07:21:45;;;;;;;;;17.75;17.75;;;;;25.83;50.63;100800.28;146603;643;46016;-71
2021/09/12 07:24:19;;;;;;;;;18.75;17.00;;;;;25.89;49.94;100796.66;146607;602;46020;-77
2021/09/12 07:26:54;;;;;;;;;20.00;18.00;;;;;25.93;50.13;100795.75;146602;632;46017;-79
2021/09/12 07:29:27;;;;;;;;;19.25;18.75;;;;;25.90;49.31;100791.34;146606;609;46031;-74
2021/09/12 07:32:02;;;;;;;;;21.25;19.75;;;;;25.92;50.46;100793.97;146603;577;46017;-68
2021/09/12 07:34:36;;;;;;;;;18.00;17.50;;;;;25.97;50.10;100793.03;146606;649;46020;-74
2021/09/12 07:37:10;;;;;;;;;16.00;16.00;;;;;26.05;49.70;100792.97;146604;669;47012;-74
2021/09/12 07:39:44;;;;;;;;;18.00;16.25;;;;;26.10;49.24;100791.12;146607;573;47010;-75
2021/09/12 07:42:18;;;;;;;;;15.75;14.75;;;;;26.14;48.40;100795.53;146605;604;46016;-75
2021/09/12 07:44:51;;;;;;;;;17.25;16.25;;;;;26.13;48.89;100798.19;146609;593;46010;-75
2021/09/12 07:47:25;;;;;;;;;17.25;16.75;;;;;26.14;48.51;100802.63;146603;600;46016;-75
2021/09/12 07:49:59;;;;;;;;;18.75;15.75;;;;;26.13;49.40;100790.22;146605;656;46010;-74
2021/09/12 07:52:33;;;;;;;;;18.00;17.75;;;;;26.07;49.84;100784.97;146606;607;46012;-75
2021/09/12 07:55:08;;;;;;;;;18.00;16.75;;;;;25.96;48.96;100795.72;146607;570;47010;-76
2021/09/12 07:57:42;;;;;;;;;17.25;15.50;;;;;25.89;48.80;100794.00;146605;694;46012;-76
2021/09/12 08:00:16;;;;;;;;;14.00;13.00;;;;;25.84;49.38;100794.06;146611;621;45022;-74
2021/09/12 08:02:51;;;;;;;;;15.50;13.75;;;;;25.81;49.23;100788.78;146604;570;47012;-75
2021/09/12 08:05:25;;;;;;;;;18.75;18.00;;;;;25.32;49.38;100702.50;146608;563;45050;-76
2021/09/12 08:07:59;;;;;;;;;18.50;16.75;;;;;25.62;49.86;100745.59;146604;605;47012;-75
2021/09/12 08:10:33;;;;;;;;;18.25;17.00;;;;;25.92;49.90;100797.53;146607;565;46021;-75
2021/09/12 08:13:07;;;;;;;;;21.25;21.25;;;;;25.88;49.21;100787.81;146605;593;46016;-76
2021/09/12 08:15:41;;;;;;;;;20.75;19.25;;;;;25.84;49.75;100790.53;146606;563;46020;-76
2021/09/12 08:18:17;;;;;;;;;17.75;16.25;;;;;25.80;49.13;100789.66;146605;583;46016;-88
2021/09/12 08:20:51;;;;;;;;;18.25;18.25;;;;;25.28;49.39;100713.19;146611;599;45022;-85
2021/09/12 08:23:25;;;;;;;;;20.50;19.25;;;;;25.72;50.28;100802.13;146602;575;47020;-89
2021/09/12 08:26:00;;;;;;;;;17.25;16.75;;;;;25.72;50.47;100794.16;146610;711;45020;-86
2021/09/12 08:28:34;;;;;;;;;21.25;19.00;;;;;25.74;50.89;100792.38;146606;612;46012;-86
2021/09/12 08:31:08;;;;;;;;;20.00;18.50;;;;;25.72;50.91;100795.03;146602;594;46020;-86
2021/09/12 08:33:42;;;;;;;;;21.25;19.00;;;;;25.67;51.26;100794.22;146602;575;47012;-86
2021/09/12 08:36:15;;;;;;;;;15.00;15.00;;;;;25.61;51.57;100799.59;146608;626;46020;-86
2021/09/12 08:38:52;;;;;;;;;21.25;19.25;;;;;25.63;51.27;100797.78;146601;684;46016;-87
2021/09/12 08:41:27;;;;;;;;;20.50;19.50;;;;;25.69;51.21;100796.84;146604;717;46020;-88
2021/09/12 08:44:03;;;;;;;;;21.25;18.00;;;;;25.78;51.63;100794.97;146605;584;47020;-85
2021/09/12 08:46:37;;;;;;;;;18.75;18.75;;;;;25.77;51.00;100776.41;146607;629;46021;-86
2021/09/12 08:49:11;;;;;;;;;25.50;21.50;;;;;25.95;51.34;100800.16;146605;604;46018;-86
2021/09/12 08:51:45;;;;;;;;;15.75;15.00;;;;;25.98;50.86;100793.91;146608;575;46010;-86
2021/09/12 08:54:19;;;;;;;;;17.50;16.75;;;;;26.02;51.45;100800.97;146607;565;46012;-87
2021/09/12 08:56:52;;;;;;;;;20.00;19.00;;;;;26.02;50.41;100796.53;146606;602;47014;-87
2021/09/12 08:59:31;;;;;;;;;19.50;18.75;;;;;25.97;50.93;100790.38;146602;715;47012;-92
2021/09/12 09:02:09;;;;;;;;;22.00;19.00;;;;;25.94;50.36;100795.72;146607;573;46021;-85
2021/09/12 09:04:43;;;;;;;;;19.25;16.50;;;;;25.87;50.41;100796.69;146604;602;46910;-87
2021/09/12 09:07:17;;;;;;;;;19.00;18.25;;;;;25.81;50.87;100786.13;146605;601;46914;-87
2021/09/12 09:09:53;;;;;;;;;19.25;18.75;;;;;25.84;51.05;100786.09;146605;579;46012;-90
2021/09/12 09:12:41;;;;;;;;;17.00;17.00;;;;;25.90;50.46;100785.16;146609;628;45034;-86
2021/09/12 09:15:22;;;;;;;;;17.25;16.25;;;;;25.91;51.56;100786.91;146605;706;46017;-87
2021/09/12 09:17:57;;;;;;;;;21.00;20.00;;;;;25.94;51.98;100776.25;146607;581;46020;-89
2021/09/12 09:20:36;;;;;;;;;19.00;18.75;;;;;25.99;50.73;100771.78;146602;572;47018;-88
2021/09/12 09:23:11;;;;;;;;;20.50;19.75;;;;;25.97;51.15;100777.09;146608;600;46025;-91
2021/09/12 09:25:46;;;;;;;;;16.75;16.75;;;;;26.01;51.12;100781.50;146604;570;47012;-92
2021/09/12 09:28:19;;;;;;;;;18.00;18.00;;;;;26.03;50.90;100768.19;146611;615;45020;-89
2021/09/12 09:30:59;;;;;;;;;19.75;18.00;;;;;26.05;51.03;100777.03;146606;620;46020;-86
2021/09/12 09:33:34;;;;;;;;;18.00;18.00;;;;;26.10;51.06;100774.31;146603;610;46020;-91
2021/09/12 09:36:14;;;;;;;;;17.50;16.50;;;;;26.16;51.25;100769.78;146606;607;46012;-88
2021/09/12 09:38:55;;;;;;;;;26.00;23.75;;;;;26.22;50.69;100775.03;146604;608;46021;-86
2021/09/12 09:41:29;;;;;;;;;18.50;18.25;;;;;26.33;50.83;100776.69;146603;569;46016;-92
2021/09/12 09:44:10;;;;;;;;;18.00;17.00;;;;;26.41;50.57;100775.66;146609;588;46010;-86
2021/09/12 09:46:48;;;;;;;;;19.50;16.00;;;;;26.47;50.68;100780.03;146606;609;46016;-90
2021/09/12 09:49:25;;;;;;;;;17.75;16.25;;;;;26.52;50.21;100778.25;146608;603;46020;-88
2021/09/12 09:52:05;;;;;;;;;19.75;18.75;;;;;26.51;50.23;100763.16;146604;594;46017;-89
2021/09/12 09:54:39;;;;;;;;;20.00;18.75;;;;;26.69;50.39;100775.31;146607;654;46010;-89
2021/09/12 09:57:13;;;;;;;;;19.25;18.00;;;;;26.75;49.79;100772.59;146605;614;46016;-89
2021/09/12 09:59:47;;;;;;;;;20.25;18.50;;;;;26.78;49.80;100771.66;146604;603;46021;-89
2021/09/12 10:02:21;;;;;;;;;19.50;19.50;;;;;26.73;49.18;100782.37;146606;622;47020;-89
2021/09/12 10:04:56;;;;;;;;;18.75;17.75;;;;;26.73;50.07;100769.09;146608;565;46020;-90
2021/09/12 10:07:31;;;;;;;;;23.25;21.25;;;;;26.68;48.78;100774.47;146606;603;46910;-88
2021/09/12 10:10:10;;;;;;;;;20.75;19.50;;;;;26.66;49.71;100773.59;146606;569;46010;-89
2021/09/12 10:12:58;;;;;;;;;20.75;20.25;;;;;26.75;49.94;100777.03;146604;596;46012;-89
2021/09/12 10:15:42;;;;;;;;;22.50;18.50;;;;;26.84;50.60;100768.91;146606;612;46020;-93
2021/09/12 10:18:17;;;;;;;;;18.00;18.00;;;;;26.93;49.86;100771.44;146603;644;46016;-88
2021/09/12 10:20:51;;;;;;;;;20.00;17.75;;;;;27.02;49.32;100762.44;146607;580;46020;-88
2021/09/12 10:23:29;;;;;;;;;18.25;18.00;;;;;27.07;49.26;100773.88;146604;593;46034;-93
2021/09/12 10:29:05;;;;;;;;;21.00;18.00;;;;;27.11;48.92;100771.16;146600;485;46015;-79
2021/09/12 10:31:41;;;;;;;;;14.75;14.50;;;;;27.15;48.00;100767.56;146606;624;47012;-78
2021/09/12 10:34:17;;;;;;;;;18.75;18.00;;;;;27.16;47.96;100763.09;146604;577;46012;-80
2021/09/12 10:41:28;;;;;;;;;17.50;16.25;;;;;25.27;48.68;100478.78;146602;467;46016;-87
2021/09/12 10:44:02;;;;;;;;;15.00;15.00;;;;;27.09;47.45;100759.63;146606;571;46010;-87
2021/09/12 10:46:36;;;;;;;;;19.00;18.00;;;;;27.06;46.49;100762.34;146603;629;46016;-87
2021/09/12 10:49:11;;;;;;;;;21.25;19.50;;;;;27.07;46.34;100753.47;146606;674;46012;-88
2021/09/12 10:52:14;;;;;;;;;15.25;14.50;;;;;27.15;45.17;100751.59;146605;601;46012;-87
2021/09/12 10:55:33;;;;;;;;;19.00;18.75;;;;;27.31;48.34;100761.97;146605;693;46912;-88
2021/09/12 10:58:07;;;;;;;;;15.25;15.25;;;;;27.39;44.93;100763.59;146603;603;47912;-88
2021/09/12 11:03:23;;;;;;;;;15.50;14.25;;;;;27.62;43.84;100752.53;146605;466;46012;-77
2021/09/12 11:05:58;;;;;;;;;22.75;18.25;;;;;27.75;42.07;100746.97;146607;597;46010;-77
2021/09/12 11:08:42;;;;;;;;;18.50;18.50;;;;;27.91;43.67;100739.59;146603;626;46016;-78
2021/09/12 11:11:16;;;;;;;;;16.00;14.75;;;;;28.09;43.13;100745.41;146606;573;47010;-76
2021/09/12 11:17:53;;;;;;;;;15.00;14.50;;;;;28.34;43.06;100736.91;146605;566;47010;-73
2021/09/12 11:20:48;;;;;;;;;16.50;14.50;;;;;28.42;42.52;100740.31;146603;589;46016;-76
2021/09/12 11:23:33;;;;;;;;;14.50;13.75;;;;;28.46;42.80;100731.31;146604;704;46029;-74
2021/09/12 11:26:07;;;;;;;;;16.00;14.25;;;;;28.49;42.66;100733.06;146604;573;46012;-74
2021/09/12 11:28:41;;;;;;;;;13.00;12.25;;;;;28.50;41.03;100732.13;146605;632;46021;-74
2021/09/12 11:31:15;;;;;;;;;12.75;12.75;;;;;28.47;41.85;100735.75;146601;584;46016;-74
2021/09/12 11:33:57;;;;;;;;;15.50;15.25;;;;;28.42;43.02;100736.78;146605;600;46020;-74
2021/09/12 11:36:42;;;;;;;;;15.75;14.50;;;;;28.35;42.53;100732.44;146606;665;46013;-75
2021/09/12 11:39:18;;;;;;;;;11.50;11.50;;;;;28.29;41.62;100731.69;146606;590;47010;-75
2021/09/12 11:41:53;;;;;;;;;12.25;12.25;;;;;28.30;41.99;100724.56;146602;626;47018;-75
2021/09/12 11:44:55;;;;;;;;;12.75;12.75;;;;;27.08;41.58;100534.34;146608;647;45023;-74
2021/09/12 11:47:31;;;;;;;;;16.25;15.00;;;;;28.28;41.82;100724.56;146602;649;46016;-75
2021/09/12 11:50:13;;;;;;;;;14.00;13.75;;;;;28.19;41.53;100729.22;146604;635;46020;-73
2021/09/12 11:52:47;;;;;;;;;13.50;12.50;;;;;28.07;42.14;100725.94;146604;620;46012;-74
2021/09/12 11:55:29;;;;;;;;;13.50;13.25;;;;;27.94;42.44;100729.75;146603;722;46020;-74
2021/09/12 11:58:08;;;;;;;;;18.50;15.25;;;;;27.81;42.77;100725.56;146604;652;46017;-74
2021/09/12 12:00:47;;;;;;;;;12.00;12.00;;;;;27.70;40.75;100727.56;146608;685;46020;-75
2021/09/12 12:03:30;;;;;;;;;14.00;13.25;;;;;27.62;43.13;100725.03;146602;626;46016;-75
2021/09/12 12:06:04;;;;;;;;;13.25;13.00;;;;;27.54;43.88;100719.84;146606;593;47010;-75